sensor_id;sensor_type;location;lat;lon;timestamp;pressure;altitude;pressure_sealevel;temperature;humidity
80568;BME280;69922;45.656;25.586;2023-07-28T00:00:14;95096.16;;;13.71;61.81
80568;BME280;69922;45.656;25.586;2023-07-28T00:01:40;95093.29;;;13.67;61.87
80568;BME280;69922;45.656;25.586;2023-07-28T00:02:47;95090.60;;;13.63;62.06
80568;BME280;69922;45.656;25.586;2023-07-28T00:03:54;95090.10;;;13.61;62.13
80568;BME280;69922;45.656;25.586;2023-07-28T00:05:00;95088.23;;;13.58;62.19
80568;BME280;69922;45.656;25.586;2023-07-28T00:06:06;95082.66;;;13.55;62.12
80568;BME280;69922;45.656;25.586;2023-07-28T00:07:12;95087.86;;;13.53;62.27
80568;BME280;69922;45.656;25.586;2023-07-28T00:08:18;95087.00;;;13.51;62.62
80568;BME280;69922;45.656;25.586;2023-07-28T00:09:24;95088.75;;;13.49;62.65
80568;BME280;69922;45.656;25.586;2023-07-28T00:10:30;95082.39;;;13.47;62.74
80568;BME280;69922;45.656;25.586;2023-07-28T00:11:38;95078.70;;;13.45;62.87
80568;BME280;69922;45.656;25.586;2023-07-28T00:12:44;95081.42;;;13.41;62.97
80568;BME280;69922;45.656;25.586;2023-07-28T00:13:50;95082.36;;;13.38;62.80
80568;BME280;69922;45.656;25.586;2023-07-28T00:14:56;95085.69;;;13.37;62.84
80568;BME280;69922;45.656;25.586;2023-07-28T00:16:02;95083.28;;;13.36;62.95
80568;BME280;69922;45.656;25.586;2023-07-28T00:17:09;95083.90;;;13.33;63.10
80568;BME280;69922;45.656;25.586;2023-07-28T00:18:16;95078.96;;;13.31;63.04
80568;BME280;69922;45.656;25.586;2023-07-28T00:19:24;95081.11;;;13.27;63.20
80568;BME280;69922;45.656;25.586;2023-07-28T00:20:30;95079.55;;;13.22;63.59
80568;BME280;69922;45.656;25.586;2023-07-28T00:21:37;95084.00;;;13.20;63.42
80568;BME280;69922;45.656;25.586;2023-07-28T00:22:44;95084.45;;;13.16;63.48
80568;BME280;69922;45.656;25.586;2023-07-28T00:23:50;95084.27;;;13.14;63.74
80568;BME280;69922;45.656;25.586;2023-07-28T00:24:57;95084.48;;;13.11;63.75
80568;BME280;69922;45.656;25.586;2023-07-28T00:26:03;95083.66;;;13.09;63.72
80568;BME280;69922;45.656;25.586;2023-07-28T00:27:09;95082.75;;;13.08;63.85
80568;BME280;69922;45.656;25.586;2023-07-28T00:28:16;95083.20;;;13.07;63.78
80568;BME280;69922;45.656;25.586;2023-07-28T00:29:22;95082.61;;;13.06;64.01
80568;BME280;69922;45.656;25.586;2023-07-28T00:30:27;95083.65;;;13.05;64.61
80568;BME280;69922;45.656;25.586;2023-07-28T00:31:34;95089.27;;;13.01;64.87
80568;BME280;69922;45.656;25.586;2023-07-28T00:32:40;95090.64;;;12.97;65.15
80568;BME280;69922;45.656;25.586;2023-07-28T00:33:46;95096.02;;;12.92;65.21
80568;BME280;69922;45.656;25.586;2023-07-28T00:34:53;95095.91;;;12.86;65.26
80568;BME280;69922;45.656;25.586;2023-07-28T00:35:59;95099.73;;;12.79;65.64
80568;BME280;69922;45.656;25.586;2023-07-28T00:37:06;95095.66;;;12.72;65.72
80568;BME280;69922;45.656;25.586;2023-07-28T00:38:12;95092.03;;;12.65;66.01
80568;BME280;69922;45.656;25.586;2023-07-28T00:39:19;95092.46;;;12.57;66.20
80568;BME280;69922;45.656;25.586;2023-07-28T00:40:25;95097.40;;;12.51;66.88
80568;BME280;69922;45.656;25.586;2023-07-28T00:41:31;95100.73;;;12.48;66.93
80568;BME280;69922;45.656;25.586;2023-07-28T00:42:38;95100.55;;;12.43;66.94
80568;BME280;69922;45.656;25.586;2023-07-28T00:43:44;95096.83;;;12.38;66.97
80568;BME280;69922;45.656;25.586;2023-07-28T00:44:50;95096.90;;;12.33;67.27
80568;BME280;69922;45.656;25.586;2023-07-28T00:45:56;95099.73;;;12.30;67.26
80568;BME280;69922;45.656;25.586;2023-07-28T00:47:02;95098.99;;;12.26;67.65
80568;BME280;69922;45.656;25.586;2023-07-28T00:48:12;95102.20;;;12.24;67.95
80568;BME280;69922;45.656;25.586;2023-07-28T00:49:19;95101.02;;;12.22;68.33
80568;BME280;69922;45.656;25.586;2023-07-28T00:50:26;95101.44;;;12.20;68.87
80568;BME280;69922;45.656;25.586;2023-07-28T00:51:32;95102.73;;;12.19;68.96
80568;BME280;69922;45.656;25.586;2023-07-28T00:52:39;95104.35;;;12.19;69.53
80568;BME280;69922;45.656;25.586;2023-07-28T00:53:45;95102.61;;;12.18;69.91
80568;BME280;69922;45.656;25.586;2023-07-28T00:54:51;95103.59;;;12.16;70.12
80568;BME280;69922;45.656;25.586;2023-07-28T00:55:57;95107.71;;;12.13;70.32
80568;BME280;69922;45.656;25.586;2023-07-28T00:57:05;95104.36;;;12.09;70.49
80568;BME280;69922;45.656;25.586;2023-07-28T00:58:11;95106.70;;;12.04;70.81
80568;BME280;69922;45.656;25.586;2023-07-28T00:59:21;95108.16;;;12.01;70.76
80568;BME280;69922;45.656;25.586;2023-07-28T01:00:28;95109.89;;;11.97;70.48
80568;BME280;69922;45.656;25.586;2023-07-28T01:01:34;95112.07;;;11.95;70.70
80568;BME280;69922;45.656;25.586;2023-07-28T01:02:41;95107.66;;;11.92;70.94
80568;BME280;69922;45.656;25.586;2023-07-28T01:03:48;95107.93;;;11.91;71.36
80568;BME280;69922;45.656;25.586;2023-07-28T01:04:54;95108.79;;;11.89;71.52
80568;BME280;69922;45.656;25.586;2023-07-28T01:06:13;95110.73;;;11.87;71.68
80568;BME280;69922;45.656;25.586;2023-07-28T01:07:26;95111.88;;;11.84;71.65
80568;BME280;69922;45.656;25.586;2023-07-28T01:08:36;95114.02;;;11.81;71.53
80568;BME280;69922;45.656;25.586;2023-07-28T01:09:50;95112.75;;;11.79;71.78
80568;BME280;69922;45.656;25.586;2023-07-28T01:10:57;95115.09;;;11.76;71.93
80568;BME280;69922;45.656;25.586;2023-07-28T01:12:08;95112.75;;;11.74;71.99
80568;BME280;69922;45.656;25.586;2023-07-28T01:13:15;95113.02;;;11.73;72.08
80568;BME280;69922;45.656;25.586;2023-07-28T01:14:28;95112.55;;;11.71;72.05
80568;BME280;69922;45.656;25.586;2023-07-28T01:15:34;95109.58;;;11.69;71.77
80568;BME280;69922;45.656;25.586;2023-07-28T01:16:41;95108.56;;;11.67;71.91
80568;BME280;69922;45.656;25.586;2023-07-28T01:17:47;95105.05;;;11.66;72.37
80568;BME280;69922;45.656;25.586;2023-07-28T01:18:54;95105.08;;;11.65;72.42
80568;BME280;69922;45.656;25.586;2023-07-28T01:20:00;95100.96;;;11.65;72.44
80568;BME280;69922;45.656;25.586;2023-07-28T01:21:09;95101.29;;;11.65;72.55
80568;BME280;69922;45.656;25.586;2023-07-28T01:22:34;95101.00;;;11.66;72.65
80568;BME280;69922;45.656;25.586;2023-07-28T01:23:55;95102.11;;;11.67;72.62
80568;BME280;69922;45.656;25.586;2023-07-28T01:25:09;95101.48;;;11.66;72.44
80568;BME280;69922;45.656;25.586;2023-07-28T01:26:28;95101.32;;;11.64;72.53
80568;BME280;69922;45.656;25.586;2023-07-28T01:27:34;95103.39;;;11.63;72.81
80568;BME280;69922;45.656;25.586;2023-07-28T01:28:41;95105.45;;;11.62;72.90
80568;BME280;69922;45.656;25.586;2023-07-28T01:29:49;95107.10;;;11.61;73.15
80568;BME280;69922;45.656;25.586;2023-07-28T01:30:56;95103.73;;;11.61;72.96
80568;BME280;69922;45.656;25.586;2023-07-28T01:32:02;95099.08;;;11.59;73.03
80568;BME280;69922;45.656;25.586;2023-07-28T01:33:09;95108.20;;;11.59;72.92
80568;BME280;69922;45.656;25.586;2023-07-28T01:34:15;95106.46;;;11.57;72.98
80568;BME280;69922;45.656;25.586;2023-07-28T01:35:21;95106.36;;;11.56;73.31
80568;BME280;69922;45.656;25.586;2023-07-28T01:36:27;95105.69;;;11.57;73.09
80568;BME280;69922;45.656;25.586;2023-07-28T01:37:33;95107.05;;;11.57;73.07
80568;BME280;69922;45.656;25.586;2023-07-28T01:38:41;95110.01;;;11.57;73.16
80568;BME280;69922;45.656;25.586;2023-07-28T01:39:47;95111.73;;;11.58;73.33
80568;BME280;69922;45.656;25.586;2023-07-28T01:40:53;95113.30;;;11.58;73.30
80568;BME280;69922;45.656;25.586;2023-07-28T01:42:00;95116.48;;;11.58;73.00
80568;BME280;69922;45.656;25.586;2023-07-28T01:43:07;95116.48;;;11.55;72.92
80568;BME280;69922;45.656;25.586;2023-07-28T01:44:14;95114.17;;;11.52;73.01
80568;BME280;69922;45.656;25.586;2023-07-28T01:45:20;95119.73;;;11.48;73.44
80568;BME280;69922;45.656;25.586;2023-07-28T01:46:26;95119.20;;;11.44;73.43
80568;BME280;69922;45.656;25.586;2023-07-28T01:47:32;95120.33;;;11.38;73.52
80568;BME280;69922;45.656;25.586;2023-07-28T01:48:38;95120.06;;;11.32;73.65
80568;BME280;69922;45.656;25.586;2023-07-28T01:49:45;95117.21;;;11.27;73.65
80568;BME280;69922;45.656;25.586;2023-07-28T01:50:51;95123.89;;;11.22;73.73
80568;BME280;69922;45.656;25.586;2023-07-28T01:51:58;95121.66;;;11.17;73.62
80568;BME280;69922;45.656;25.586;2023-07-28T01:53:05;95123.52;;;11.14;73.79
80568;BME280;69922;45.656;25.586;2023-07-28T01:54:11;95126.60;;;11.11;73.89
80568;BME280;69922;45.656;25.586;2023-07-28T01:55:18;95125.79;;;11.08;74.01
80568;BME280;69922;45.656;25.586;2023-07-28T01:56:24;95124.86;;;11.03;74.11
80568;BME280;69922;45.656;25.586;2023-07-28T01:57:32;95125.23;;;10.98;74.12
80568;BME280;69922;45.656;25.586;2023-07-28T01:58:38;95127.11;;;10.95;74.14
80568;BME280;69922;45.656;25.586;2023-07-28T01:59:44;95125.73;;;10.92;74.54
80568;BME280;69922;45.656;25.586;2023-07-28T02:00:50;95126.58;;;10.90;74.55
80568;BME280;69922;45.656;25.586;2023-07-28T02:01:56;95130.09;;;10.88;74.57
80568;BME280;69922;45.656;25.586;2023-07-28T02:03:04;95126.55;;;10.86;74.87
80568;BME280;69922;45.656;25.586;2023-07-28T02:04:10;95128.65;;;10.83;74.91
80568;BME280;69922;45.656;25.586;2023-07-28T02:05:17;95125.98;;;10.81;74.75
80568;BME280;69922;45.656;25.586;2023-07-28T02:06:23;95125.45;;;10.80;75.18
80568;BME280;69922;45.656;25.586;2023-07-28T02:07:29;95122.69;;;10.79;75.13
80568;BME280;69922;45.656;25.586;2023-07-28T02:08:36;95124.52;;;10.78;75.67
80568;BME280;69922;45.656;25.586;2023-07-28T02:09:42;95128.79;;;10.80;75.94
80568;BME280;69922;45.656;25.586;2023-07-28T02:10:48;95126.70;;;10.82;75.79
80568;BME280;69922;45.656;25.586;2023-07-28T02:11:54;95129.13;;;10.84;75.93
80568;BME280;69922;45.656;25.586;2023-07-28T02:13:00;95130.70;;;10.86;75.55
80568;BME280;69922;45.656;25.586;2023-07-28T02:14:06;95133.27;;;10.87;75.90
80568;BME280;69922;45.656;25.586;2023-07-28T02:15:13;95129.98;;;10.88;75.83
80568;BME280;69922;45.656;25.586;2023-07-28T02:16:19;95134.95;;;10.91;75.93
80568;BME280;69922;45.656;25.586;2023-07-28T02:17:25;95134.14;;;10.91;76.02
80568;BME280;69922;45.656;25.586;2023-07-28T02:18:32;95140.10;;;10.92;76.06
80568;BME280;69922;45.656;25.586;2023-07-28T02:19:38;95138.23;;;10.92;75.98
80568;BME280;69922;45.656;25.586;2023-07-28T02:20:47;95137.62;;;10.93;76.11
80568;BME280;69922;45.656;25.586;2023-07-28T02:21:52;95141.95;;;10.94;76.10
80568;BME280;69922;45.656;25.586;2023-07-28T02:22:58;95141.13;;;10.92;76.06
80568;BME280;69922;45.656;25.586;2023-07-28T02:24:06;95144.20;;;10.93;76.31
80568;BME280;69922;45.656;25.586;2023-07-28T02:25:12;95141.34;;;10.96;76.23
80568;BME280;69922;45.656;25.586;2023-07-28T02:26:18;95144.49;;;10.98;76.00
80568;BME280;69922;45.656;25.586;2023-07-28T02:27:25;95141.21;;;10.98;76.10
80568;BME280;69922;45.656;25.586;2023-07-28T02:28:31;95142.71;;;10.99;76.04
80568;BME280;69922;45.656;25.586;2023-07-28T02:29:38;95141.79;;;10.99;75.71
80568;BME280;69922;45.656;25.586;2023-07-28T02:30:44;95143.23;;;10.98;76.07
80568;BME280;69922;45.656;25.586;2023-07-28T02:31:51;95144.07;;;10.97;75.83
80568;BME280;69922;45.656;25.586;2023-07-28T02:32:57;95144.85;;;10.97;75.89
80568;BME280;69922;45.656;25.586;2023-07-28T02:34:03;95143.11;;;10.97;75.69
80568;BME280;69922;45.656;25.586;2023-07-28T02:35:10;95139.73;;;10.95;75.89
80568;BME280;69922;45.656;25.586;2023-07-28T02:36:16;95142.44;;;10.96;76.11
80568;BME280;69922;45.656;25.586;2023-07-28T02:37:23;95144.77;;;10.96;76.04
80568;BME280;69922;45.656;25.586;2023-07-28T02:38:30;95141.04;;;10.96;75.98
80568;BME280;69922;45.656;25.586;2023-07-28T02:39:36;95144.20;;;10.97;75.71
80568;BME280;69922;45.656;25.586;2023-07-28T02:40:42;95143.85;;;10.94;75.63
80568;BME280;69922;45.656;25.586;2023-07-28T02:41:48;95147.91;;;10.94;75.50
80568;BME280;69922;45.656;25.586;2023-07-28T02:42:54;95152.91;;;10.94;75.98
80568;BME280;69922;45.656;25.586;2023-07-28T02:44:00;95152.62;;;10.95;76.15
80568;BME280;69922;45.656;25.586;2023-07-28T02:45:09;95154.92;;;10.96;76.01
80568;BME280;69922;45.656;25.586;2023-07-28T02:46:16;95156.02;;;10.96;75.96
80568;BME280;69922;45.656;25.586;2023-07-28T02:47:22;95154.36;;;10.95;76.06
80568;BME280;69922;45.656;25.586;2023-07-28T02:48:28;95156.13;;;10.96;76.36
80568;BME280;69922;45.656;25.586;2023-07-28T02:49:34;95152.20;;;10.96;76.13
80568;BME280;69922;45.656;25.586;2023-07-28T02:50:46;95146.41;;;10.96;75.98
80568;BME280;69922;45.656;25.586;2023-07-28T02:51:53;95149.45;;;10.97;76.12
80568;BME280;69922;45.656;25.586;2023-07-28T02:52:59;95149.24;;;10.98;76.08
80568;BME280;69922;45.656;25.586;2023-07-28T02:54:05;95148.09;;;10.98;76.20
80568;BME280;69922;45.656;25.586;2023-07-28T02:55:11;95151.79;;;10.99;75.75
80568;BME280;69922;45.656;25.586;2023-07-28T02:56:18;95150.23;;;10.99;76.01
80568;BME280;69922;45.656;25.586;2023-07-28T02:57:26;95147.48;;;11.01;76.00
80568;BME280;69922;45.656;25.586;2023-07-28T02:58:32;95149.58;;;11.02;76.00
80568;BME280;69922;45.656;25.586;2023-07-28T02:59:38;95152.05;;;11.03;75.77
80568;BME280;69922;45.656;25.586;2023-07-28T03:00:45;95152.15;;;11.04;75.98
80568;BME280;69922;45.656;25.586;2023-07-28T03:01:52;95152.27;;;11.05;75.71
80568;BME280;69922;45.656;25.586;2023-07-28T03:02:59;95155.67;;;11.06;75.50
80568;BME280;69922;45.656;25.586;2023-07-28T03:04:05;95154.80;;;11.06;75.41
80568;BME280;69922;45.656;25.586;2023-07-28T03:05:13;95150.92;;;11.06;75.61
80568;BME280;69922;45.656;25.586;2023-07-28T03:06:19;95151.21;;;11.07;75.82
80568;BME280;69922;45.656;25.586;2023-07-28T03:07:25;95153.99;;;11.09;75.81
80568;BME280;69922;45.656;25.586;2023-07-28T03:08:31;95152.64;;;11.10;75.58
80568;BME280;69922;45.656;25.586;2023-07-28T03:09:37;95155.20;;;11.11;75.64
80568;BME280;69922;45.656;25.586;2023-07-28T03:10:43;95155.20;;;11.13;75.96
80568;BME280;69922;45.656;25.586;2023-07-28T03:11:48;95155.64;;;11.16;75.60
80568;BME280;69922;45.656;25.586;2023-07-28T03:12:55;95158.52;;;11.18;75.25
80568;BME280;69922;45.656;25.586;2023-07-28T03:14:01;95162.59;;;11.18;75.24
80568;BME280;69922;45.656;25.586;2023-07-28T03:15:11;95162.23;;;11.15;75.09
80568;BME280;69922;45.656;25.586;2023-07-28T03:16:17;95165.88;;;11.13;75.10
80568;BME280;69922;45.656;25.586;2023-07-28T03:17:24;95160.92;;;11.12;75.54
80568;BME280;69922;45.656;25.586;2023-07-28T03:18:31;95163.70;;;11.11;75.13
80568;BME280;69922;45.656;25.586;2023-07-28T03:19:37;95163.56;;;11.10;74.95
80568;BME280;69922;45.656;25.586;2023-07-28T03:20:43;95164.70;;;11.09;75.48
80568;BME280;69922;45.656;25.586;2023-07-28T03:21:49;95165.09;;;11.09;75.17
80568;BME280;69922;45.656;25.586;2023-07-28T03:22:55;95167.33;;;11.08;75.41
80568;BME280;69922;45.656;25.586;2023-07-28T03:24:01;95170.88;;;11.09;75.70
80568;BME280;69922;45.656;25.586;2023-07-28T03:25:09;95173.39;;;11.11;76.00
80568;BME280;69922;45.656;25.586;2023-07-28T03:26:15;95174.62;;;11.13;75.46
80568;BME280;69922;45.656;25.586;2023-07-28T03:27:21;95178.13;;;11.12;75.20
80568;BME280;69922;45.656;25.586;2023-07-28T03:28:27;95176.55;;;11.12;75.11
80568;BME280;69922;45.656;25.586;2023-07-28T03:29:33;95170.28;;;11.12;75.11
80568;BME280;69922;45.656;25.586;2023-07-28T03:30:39;95170.32;;;11.12;75.29
80568;BME280;69922;45.656;25.586;2023-07-28T03:31:46;95168.06;;;11.12;75.12
80568;BME280;69922;45.656;25.586;2023-07-28T03:32:52;95167.77;;;11.13;75.32
80568;BME280;69922;45.656;25.586;2023-07-28T03:33:59;95167.42;;;11.14;75.39
80568;BME280;69922;45.656;25.586;2023-07-28T03:35:08;95168.05;;;11.16;75.40
80568;BME280;69922;45.656;25.586;2023-07-28T03:36:14;95163.96;;;11.19;75.20
80568;BME280;69922;45.656;25.586;2023-07-28T03:37:21;95168.42;;;11.21;75.45
80568;BME280;69922;45.656;25.586;2023-07-28T03:38:27;95167.67;;;11.24;75.55
80568;BME280;69922;45.656;25.586;2023-07-28T03:39:33;95167.92;;;11.27;75.21
80568;BME280;69922;45.656;25.586;2023-07-28T03:40:39;95164.91;;;11.31;75.22
80568;BME280;69922;45.656;25.586;2023-07-28T03:41:47;95170.66;;;11.33;75.40
80568;BME280;69922;45.656;25.586;2023-07-28T03:42:53;95170.48;;;11.37;75.05
80568;BME280;69922;45.656;25.586;2023-07-28T03:43:59;95169.59;;;11.37;74.83
80568;BME280;69922;45.656;25.586;2023-07-28T03:45:15;95172.75;;;11.39;74.95
80568;BME280;69922;45.656;25.586;2023-07-28T03:46:21;95167.50;;;11.42;74.86
80568;BME280;69922;45.656;25.586;2023-07-28T03:47:27;95166.23;;;11.45;74.73
80568;BME280;69922;45.656;25.586;2023-07-28T03:48:34;95163.05;;;11.50;74.81
80568;BME280;69922;45.656;25.586;2023-07-28T03:49:40;95162.62;;;11.54;74.54
80568;BME280;69922;45.656;25.586;2023-07-28T03:50:47;95160.80;;;11.57;74.84
80568;BME280;69922;45.656;25.586;2023-07-28T03:51:53;95162.96;;;11.61;74.67
80568;BME280;69922;45.656;25.586;2023-07-28T03:52:59;95165.14;;;11.64;74.47
80568;BME280;69922;45.656;25.586;2023-07-28T03:54:05;95169.44;;;11.66;74.40
80568;BME280;69922;45.656;25.586;2023-07-28T03:55:12;95172.81;;;11.68;74.23
80568;BME280;69922;45.656;25.586;2023-07-28T03:56:18;95176.17;;;11.72;74.11
80568;BME280;69922;45.656;25.586;2023-07-28T03:57:24;95175.29;;;11.75;74.12
80568;BME280;69922;45.656;25.586;2023-07-28T03:58:30;95177.20;;;11.78;73.86
80568;BME280;69922;45.656;25.586;2023-07-28T03:59:37;95172.41;;;11.80;73.85
80568;BME280;69922;45.656;25.586;2023-07-28T04:00:43;95174.09;;;11.82;73.75
80568;BME280;69922;45.656;25.586;2023-07-28T04:01:49;95173.66;;;11.83;73.73
80568;BME280;69922;45.656;25.586;2023-07-28T04:02:56;95173.55;;;11.84;73.66
80568;BME280;69922;45.656;25.586;2023-07-28T04:04:03;95175.15;;;11.85;73.60
80568;BME280;69922;45.656;25.586;2023-07-28T04:05:13;95175.70;;;11.85;73.35
80568;BME280;69922;45.656;25.586;2023-07-28T04:06:35;95179.34;;;11.86;73.31
80568;BME280;69922;45.656;25.586;2023-07-28T04:07:45;95173.70;;;11.88;73.25
80568;BME280;69922;45.656;25.586;2023-07-28T04:08:52;95171.38;;;11.91;73.28
80568;BME280;69922;45.656;25.586;2023-07-28T04:09:58;95170.89;;;11.94;73.31
80568;BME280;69922;45.656;25.586;2023-07-28T04:11:04;95172.52;;;11.97;73.12
80568;BME280;69922;45.656;25.586;2023-07-28T04:12:11;95171.09;;;12.01;73.04
80568;BME280;69922;45.656;25.586;2023-07-28T04:13:17;95176.25;;;12.05;73.04
80568;BME280;69922;45.656;25.586;2023-07-28T04:14:23;95177.08;;;12.08;72.89
80568;BME280;69922;45.656;25.586;2023-07-28T04:15:30;95183.91;;;12.11;72.63
80568;BME280;69922;45.656;25.586;2023-07-28T04:16:36;95181.34;;;12.14;72.44
80568;BME280;69922;45.656;25.586;2023-07-28T04:17:43;95185.87;;;12.17;72.38
80568;BME280;69922;45.656;25.586;2023-07-28T04:18:49;95185.52;;;12.21;72.24
80568;BME280;69922;45.656;25.586;2023-07-28T04:19:56;95183.91;;;12.24;72.12
80568;BME280;69922;45.656;25.586;2023-07-28T04:21:02;95184.20;;;12.25;71.91
80568;BME280;69922;45.656;25.586;2023-07-28T04:22:08;95180.33;;;12.26;71.90
80568;BME280;69922;45.656;25.586;2023-07-28T04:23:15;95181.04;;;12.26;71.78
80568;BME280;69922;45.656;25.586;2023-07-28T04:24:21;95182.15;;;12.28;71.72
80568;BME280;69922;45.656;25.586;2023-07-28T04:25:27;95184.42;;;12.30;71.49
80568;BME280;69922;45.656;25.586;2023-07-28T04:26:34;95184.89;;;12.33;71.47
80568;BME280;69922;45.656;25.586;2023-07-28T04:27:40;95181.94;;;12.35;71.40
80568;BME280;69922;45.656;25.586;2023-07-28T04:28:47;95183.44;;;12.37;71.35
80568;BME280;69922;45.656;25.586;2023-07-28T04:29:53;95187.79;;;12.41;71.12
80568;BME280;69922;45.656;25.586;2023-07-28T04:31:00;95188.92;;;12.44;71.16
80568;BME280;69922;45.656;25.586;2023-07-28T04:32:08;95189.27;;;12.47;71.11
80568;BME280;69922;45.656;25.586;2023-07-28T04:33:15;95189.45;;;12.50;71.07
80568;BME280;69922;45.656;25.586;2023-07-28T04:34:21;95189.67;;;12.54;71.02
80568;BME280;69922;45.656;25.586;2023-07-28T04:35:27;95188.42;;;12.58;70.89
80568;BME280;69922;45.656;25.586;2023-07-28T04:36:35;95189.88;;;12.61;70.67
80568;BME280;69922;45.656;25.586;2023-07-28T04:37:44;95191.27;;;12.63;70.50
80568;BME280;69922;45.656;25.586;2023-07-28T04:38:50;95195.68;;;12.64;70.37
80568;BME280;69922;45.656;25.586;2023-07-28T04:39:57;95194.96;;;12.65;70.43
80568;BME280;69922;45.656;25.586;2023-07-28T04:41:03;95192.14;;;12.67;70.28
80568;BME280;69922;45.656;25.586;2023-07-28T04:42:09;95186.62;;;12.71;70.29
80568;BME280;69922;45.656;25.586;2023-07-28T04:43:15;95186.66;;;12.75;70.27
80568;BME280;69922;45.656;25.586;2023-07-28T04:44:21;95183.17;;;12.81;69.97
80568;BME280;69922;45.656;25.586;2023-07-28T04:45:29;95182.04;;;12.86;69.84
80568;BME280;69922;45.656;25.586;2023-07-28T04:46:35;95181.68;;;12.92;69.79
80568;BME280;69922;45.656;25.586;2023-07-28T04:47:42;95182.71;;;12.98;69.59
80568;BME280;69922;45.656;25.586;2023-07-28T04:48:49;95181.70;;;13.02;69.29
80568;BME280;69922;45.656;25.586;2023-07-28T04:49:55;95185.71;;;13.05;69.39
80568;BME280;69922;45.656;25.586;2023-07-28T04:51:02;95187.28;;;13.09;69.47
80568;BME280;69922;45.656;25.586;2023-07-28T04:52:10;95185.48;;;13.14;69.22
80568;BME280;69922;45.656;25.586;2023-07-28T04:53:16;95186.45;;;13.17;69.11
80568;BME280;69922;45.656;25.586;2023-07-28T04:54:23;95188.48;;;13.21;69.03
80568;BME280;69922;45.656;25.586;2023-07-28T04:55:29;95186.01;;;13.24;68.86
80568;BME280;69922;45.656;25.586;2023-07-28T04:56:35;95185.23;;;13.29;68.87
80568;BME280;69922;45.656;25.586;2023-07-28T04:57:42;95185.03;;;13.35;69.03
80568;BME280;69922;45.656;25.586;2023-07-28T04:58:48;95187.39;;;13.39;68.91
80568;BME280;69922;45.656;25.586;2023-07-28T04:59:54;95181.73;;;13.43;68.74
80568;BME280;69922;45.656;25.586;2023-07-28T05:01:01;95183.69;;;13.48;68.79
80568;BME280;69922;45.656;25.586;2023-07-28T05:02:09;95183.52;;;13.52;68.80
80568;BME280;69922;45.656;25.586;2023-07-28T05:03:15;95180.33;;;13.61;68.49
80568;BME280;69922;45.656;25.586;2023-07-28T05:04:22;95181.04;;;13.65;68.31
80568;BME280;69922;45.656;25.586;2023-07-28T05:05:31;95183.77;;;13.72;68.60
80568;BME280;69922;45.656;25.586;2023-07-28T05:06:37;95184.27;;;13.82;68.53
80568;BME280;69922;45.656;25.586;2023-07-28T05:07:43;95181.41;;;13.91;67.81
80568;BME280;69922;45.656;25.586;2023-07-28T05:08:50;95184.09;;;13.96;67.61
80568;BME280;69922;45.656;25.586;2023-07-28T05:09:57;95181.42;;;14.01;67.52
80568;BME280;69922;45.656;25.586;2023-07-28T05:11:03;95181.73;;;14.05;67.10
80568;BME280;69922;45.656;25.586;2023-07-28T05:12:12;95178.86;;;14.07;67.09
80568;BME280;69922;45.656;25.586;2023-07-28T05:13:20;95175.77;;;14.09;66.91
80568;BME280;69922;45.656;25.586;2023-07-28T05:14:26;95180.46;;;14.10;66.69
80568;BME280;69922;45.656;25.586;2023-07-28T05:15:40;95177.00;;;14.13;66.40
80568;BME280;69922;45.656;25.586;2023-07-28T05:16:46;95180.33;;;14.19;66.68
80568;BME280;69922;45.656;25.586;2023-07-28T05:17:53;95180.89;;;14.23;65.76
80568;BME280;69922;45.656;25.586;2023-07-28T05:19:00;95180.52;;;14.26;65.75
80568;BME280;69922;45.656;25.586;2023-07-28T05:20:08;95181.26;;;14.30;65.89
80568;BME280;69922;45.656;25.586;2023-07-28T05:21:14;95182.02;;;14.37;66.10
80568;BME280;69922;45.656;25.586;2023-07-28T05:22:20;95180.07;;;14.45;65.53
80568;BME280;69922;45.656;25.586;2023-07-28T05:23:27;95177.94;;;14.52;65.38
80568;BME280;69922;45.656;25.586;2023-07-28T05:24:33;95179.26;;;14.60;65.15
80568;BME280;69922;45.656;25.586;2023-07-28T05:25:39;95175.81;;;14.63;64.63
80568;BME280;69922;45.656;25.586;2023-07-28T05:26:49;95173.70;;;14.68;64.71
80568;BME280;69922;45.656;25.586;2023-07-28T05:27:56;95177.19;;;14.72;64.00
80568;BME280;69922;45.656;25.586;2023-07-28T05:29:01;95179.23;;;14.74;63.85
80568;BME280;69922;45.656;25.586;2023-07-28T05:30:11;95176.59;;;14.76;63.79
80568;BME280;69922;45.656;25.586;2023-07-28T05:31:18;95177.08;;;14.80;63.93
80568;BME280;69922;45.656;25.586;2023-07-28T05:32:24;95172.70;;;14.86;63.80
80568;BME280;69922;45.656;25.586;2023-07-28T05:33:31;95175.05;;;14.91;63.03
80568;BME280;69922;45.656;25.586;2023-07-28T05:34:38;95173.48;;;14.94;63.15
80568;BME280;69922;45.656;25.586;2023-07-28T05:35:44;95171.23;;;14.97;62.80
80568;BME280;69922;45.656;25.586;2023-07-28T05:36:51;95175.36;;;15.02;63.08
80568;BME280;69922;45.656;25.586;2023-07-28T05:37:57;95173.13;;;15.07;62.94
80568;BME280;69922;45.656;25.586;2023-07-28T05:39:03;95175.27;;;15.10;62.88
80568;BME280;69922;45.656;25.586;2023-07-28T05:40:13;95174.40;;;15.13;62.97
80568;BME280;69922;45.656;25.586;2023-07-28T05:41:20;95171.48;;;15.18;63.26
80568;BME280;69922;45.656;25.586;2023-07-28T05:42:27;95176.44;;;15.24;62.96
80568;BME280;69922;45.656;25.586;2023-07-28T05:43:34;95177.15;;;15.28;63.08
80568;BME280;69922;45.656;25.586;2023-07-28T05:44:40;95174.48;;;15.33;62.98
80568;BME280;69922;45.656;25.586;2023-07-28T05:45:49;95174.04;;;15.39;63.02
80568;BME280;69922;45.656;25.586;2023-07-28T05:46:55;95175.20;;;15.48;62.80
80568;BME280;69922;45.656;25.586;2023-07-28T05:48:00;95169.49;;;15.55;62.78
80568;BME280;69922;45.656;25.586;2023-07-28T05:49:07;95171.21;;;15.61;62.48
80568;BME280;69922;45.656;25.586;2023-07-28T05:50:14;95172.60;;;15.69;62.26